sensor_id;sensor_type;location;lat;lon;timestamp;P1;durP1;ratioP1;P2;durP2;ratioP2
21438;SDS011;10880;50.302;18.736;2022-11-10T00:02:21;8.97;;;5.60;;
21438;SDS011;10880;50.302;18.736;2022-11-10T00:05:06;9.10;;;6.60;;
21438;SDS011;10880;50.302;18.736;2022-11-10T00:07:51;8.43;;;5.70;;
21438;SDS011;10880;50.302;18.736;2022-11-10T00:10:37;11.87;;;7.60;;
21438;SDS011;10880;50.302;18.736;2022-11-10T00:13:40;8.87;;;5.97;;
21438;SDS011;10880;50.302;18.736;2022-11-10T00:16:45;9.53;;;6.30;;
21438;SDS011;10880;50.302;18.736;2022-11-10T00:19:45;8.60;;;6.17;;
21438;SDS011;10880;50.302;18.736;2022-11-10T00:22:30;10.60;;;7.07;;
21438;SDS011;10880;50.302;18.736;2022-11-10T00:25:16;9.83;;;6.27;;
21438;SDS011;10880;50.302;18.736;2022-11-10T00:28:01;15.13;;;9.00;;
21438;SDS011;10880;50.302;18.736;2022-11-10T00:30:45;19.60;;;11.43;;
21438;SDS011;10880;50.302;18.736;2022-11-10T00:33:32;12.20;;;7.50;;
21438;SDS011;10880;50.302;18.736;2022-11-10T00:36:18;8.40;;;5.67;;
21438;SDS011;10880;50.302;18.736;2022-11-10T00:39:03;8.77;;;5.73;;
21438;SDS011;10880;50.302;18.736;2022-11-10T00:41:48;6.70;;;4.73;;
21438;SDS011;10880;50.302;18.736;2022-11-10T00:44:33;10.10;;;6.63;;
21438;SDS011;10880;50.302;18.736;2022-11-10T00:47:18;9.40;;;6.27;;
21438;SDS011;10880;50.302;18.736;2022-11-10T00:50:03;9.87;;;6.60;;
21438;SDS011;10880;50.302;18.736;2022-11-10T00:52:48;8.83;;;6.27;;
21438;SDS011;10880;50.302;18.736;2022-11-10T00:55:35;6.50;;;4.57;;
21438;SDS011;10880;50.302;18.736;2022-11-10T00:58:22;6.53;;;4.60;;
21438;SDS011;10880;50.302;18.736;2022-11-10T01:01:07;8.50;;;5.37;;
21438;SDS011;10880;50.302;18.736;2022-11-10T01:03:53;13.47;;;8.13;;
21438;SDS011;10880;50.302;18.736;2022-11-10T01:06:38;9.27;;;6.17;;
21438;SDS011;10880;50.302;18.736;2022-11-10T01:09:23;8.50;;;6.03;;
21438;SDS011;10880;50.302;18.736;2022-11-10T01:12:08;7.70;;;5.43;;
21438;SDS011;10880;50.302;18.736;2022-11-10T01:14:53;8.47;;;5.33;;
21438;SDS011;10880;50.302;18.736;2022-11-10T01:17:39;12.70;;;7.10;;
21438;SDS011;10880;50.302;18.736;2022-11-10T01:20:24;10.83;;;6.70;;
21438;SDS011;10880;50.302;18.736;2022-11-10T01:23:09;11.10;;;6.87;;
21438;SDS011;10880;50.302;18.736;2022-11-10T01:25:57;9.83;;;6.50;;
21438;SDS011;10880;50.302;18.736;2022-11-10T01:28:43;9.43;;;6.43;;
21438;SDS011;10880;50.302;18.736;2022-11-10T01:31:28;7.83;;;5.67;;
21438;SDS011;10880;50.302;18.736;2022-11-10T01:34:13;7.63;;;5.33;;
21438;SDS011;10880;50.302;18.736;2022-11-10T01:36:58;7.90;;;5.63;;
21438;SDS011;10880;50.302;18.736;2022-11-10T01:39:43;10.63;;;6.43;;
21438;SDS011;10880;50.302;18.736;2022-11-10T01:42:40;15.27;;;9.40;;
21438;SDS011;10880;50.302;18.736;2022-11-10T01:45:38;12.27;;;7.20;;
21438;SDS011;10880;50.302;18.736;2022-11-10T01:48:30;7.97;;;5.87;;
21438;SDS011;10880;50.302;18.736;2022-11-10T01:54:42;7.77;;;4.77;;
21438;SDS011;10880;50.302;18.736;2022-11-10T01:57:29;6.50;;;4.80;;
21438;SDS011;10880;50.302;18.736;2022-11-10T02:00:15;7.07;;;5.00;;
21438;SDS011;10880;50.302;18.736;2022-11-10T02:03:08;11.90;;;7.23;;
21438;SDS011;10880;50.302;18.736;2022-11-10T02:06:00;7.40;;;4.97;;
21438;SDS011;10880;50.302;18.736;2022-11-10T02:08:46;6.20;;;4.83;;
21438;SDS011;10880;50.302;18.736;2022-11-10T02:11:33;9.07;;;5.27;;
21438;SDS011;10880;50.302;18.736;2022-11-10T02:14:19;6.07;;;4.53;;
21438;SDS011;10880;50.302;18.736;2022-11-10T02:17:05;6.00;;;4.60;;
21438;SDS011;10880;50.302;18.736;2022-11-10T02:19:50;6.93;;;4.67;;
21438;SDS011;10880;50.302;18.736;2022-11-10T02:22:36;7.30;;;5.20;;
21438;SDS011;10880;50.302;18.736;2022-11-10T02:25:22;6.40;;;4.63;;
21438;SDS011;10880;50.302;18.736;2022-11-10T02:28:12;9.33;;;5.97;;
21438;SDS011;10880;50.302;18.736;2022-11-10T02:30:57;12.67;;;7.67;;
21438;SDS011;10880;50.302;18.736;2022-11-10T02:33:42;10.57;;;6.60;;
21438;SDS011;10880;50.302;18.736;2022-11-10T02:36:27;8.00;;;5.37;;
21438;SDS011;10880;50.302;18.736;2022-11-10T02:39:12;7.17;;;5.50;;
21438;SDS011;10880;50.302;18.736;2022-11-10T02:41:57;6.33;;;4.70;;
21438;SDS011;10880;50.302;18.736;2022-11-10T02:44:42;6.63;;;4.90;;
21438;SDS011;10880;50.302;18.736;2022-11-10T02:47:27;5.77;;;4.20;;
21438;SDS011;10880;50.302;18.736;2022-11-10T02:50:12;7.17;;;5.17;;
21438;SDS011;10880;50.302;18.736;2022-11-10T02:52:57;7.97;;;5.47;;
21438;SDS011;10880;50.302;18.736;2022-11-10T02:55:42;7.87;;;5.33;;
21438;SDS011;10880;50.302;18.736;2022-11-10T02:58:27;9.47;;;6.17;;
21438;SDS011;10880;50.302;18.736;2022-11-10T03:01:12;10.20;;;6.57;;
21438;SDS011;10880;50.302;18.736;2022-11-10T03:03:56;14.70;;;8.30;;
21438;SDS011;10880;50.302;18.736;2022-11-10T03:06:42;9.60;;;6.80;;
21438;SDS011;10880;50.302;18.736;2022-11-10T03:09:26;9.47;;;6.50;;
21438;SDS011;10880;50.302;18.736;2022-11-10T03:12:11;16.67;;;9.60;;
21438;SDS011;10880;50.302;18.736;2022-11-10T03:14:56;11.00;;;7.40;;
21438;SDS011;10880;50.302;18.736;2022-11-10T03:17:41;9.70;;;6.60;;
21438;SDS011;10880;50.302;18.736;2022-11-10T03:20:26;8.50;;;5.77;;
21438;SDS011;10880;50.302;18.736;2022-11-10T03:23:11;9.13;;;6.43;;
21438;SDS011;10880;50.302;18.736;2022-11-10T03:25:56;9.90;;;7.13;;
21438;SDS011;10880;50.302;18.736;2022-11-10T03:28:41;9.87;;;6.43;;
21438;SDS011;10880;50.302;18.736;2022-11-10T03:31:26;11.83;;;7.10;;
21438;SDS011;10880;50.302;18.736;2022-11-10T03:34:11;8.87;;;5.87;;
21438;SDS011;10880;50.302;18.736;2022-11-10T03:36:56;12.00;;;7.50;;
21438;SDS011;10880;50.302;18.736;2022-11-10T03:39:41;12.07;;;7.37;;
21438;SDS011;10880;50.302;18.736;2022-11-10T03:42:26;9.47;;;6.37;;
21438;SDS011;10880;50.302;18.736;2022-11-10T03:45:11;7.10;;;5.30;;
21438;SDS011;10880;50.302;18.736;2022-11-10T03:47:57;10.30;;;7.20;;
21438;SDS011;10880;50.302;18.736;2022-11-10T03:50:42;10.20;;;6.70;;
21438;SDS011;10880;50.302;18.736;2022-11-10T03:53:27;7.20;;;5.37;;
21438;SDS011;10880;50.302;18.736;2022-11-10T03:56:12;8.03;;;5.33;;
21438;SDS011;10880;50.302;18.736;2022-11-10T03:58:57;7.47;;;5.20;;
21438;SDS011;10880;50.302;18.736;2022-11-10T04:01:42;7.53;;;5.40;;
21438;SDS011;10880;50.302;18.736;2022-11-10T04:04:27;7.37;;;5.07;;
21438;SDS011;10880;50.302;18.736;2022-11-10T04:07:31;6.70;;;5.17;;
21438;SDS011;10880;50.302;18.736;2022-11-10T04:10:35;9.77;;;6.00;;
21438;SDS011;10880;50.302;18.736;2022-11-10T04:13:20;8.27;;;5.43;;
21438;SDS011;10880;50.302;18.736;2022-11-10T04:16:23;8.27;;;5.30;;
21438;SDS011;10880;50.302;18.736;2022-11-10T04:19:08;7.27;;;4.97;;
21438;SDS011;10880;50.302;18.736;2022-11-10T04:21:53;9.93;;;5.63;;
21438;SDS011;10880;50.302;18.736;2022-11-10T04:24:38;7.03;;;4.93;;
21438;SDS011;10880;50.302;18.736;2022-11-10T04:27:23;10.67;;;6.93;;
21438;SDS011;10880;50.302;18.736;2022-11-10T04:30:08;10.07;;;6.53;;
21438;SDS011;10880;50.302;18.736;2022-11-10T04:32:54;9.47;;;5.77;;
21438;SDS011;10880;50.302;18.736;2022-11-10T04:35:38;20.83;;;11.40;;
21438;SDS011;10880;50.302;18.736;2022-11-10T04:38:23;14.00;;;8.63;;
21438;SDS011;10880;50.302;18.736;2022-11-10T04:41:09;12.37;;;8.00;;
21438;SDS011;10880;50.302;18.736;2022-11-10T04:43:54;10.43;;;6.70;;
21438;SDS011;10880;50.302;18.736;2022-11-10T04:46:40;12.50;;;7.83;;
21438;SDS011;10880;50.302;18.736;2022-11-10T04:49:27;16.07;;;8.90;;
21438;SDS011;10880;50.302;18.736;2022-11-10T04:52:12;12.43;;;7.70;;
21438;SDS011;10880;50.302;18.736;2022-11-10T04:54:56;11.43;;;7.40;;
21438;SDS011;10880;50.302;18.736;2022-11-10T04:57:42;13.67;;;8.73;;
21438;SDS011;10880;50.302;18.736;2022-11-10T05:00:26;15.70;;;8.83;;
21438;SDS011;10880;50.302;18.736;2022-11-10T05:03:11;11.47;;;7.33;;
21438;SDS011;10880;50.302;18.736;2022-11-10T05:05:57;10.20;;;6.70;;
21438;SDS011;10880;50.302;18.736;2022-11-10T05:08:42;10.63;;;6.53;;
21438;SDS011;10880;50.302;18.736;2022-11-10T05:11:28;12.97;;;8.50;;
21438;SDS011;10880;50.302;18.736;2022-11-10T05:14:13;11.97;;;7.30;;
21438;SDS011;10880;50.302;18.736;2022-11-10T05:16:58;11.03;;;7.47;;
21438;SDS011;10880;50.302;18.736;2022-11-10T05:19:42;12.80;;;7.47;;
21438;SDS011;10880;50.302;18.736;2022-11-10T05:22:27;9.50;;;6.50;;
21438;SDS011;10880;50.302;18.736;2022-11-10T05:25:12;18.73;;;10.57;;
21438;SDS011;10880;50.302;18.736;2022-11-10T05:27:57;13.90;;;8.30;;
21438;SDS011;10880;50.302;18.736;2022-11-10T05:30:42;12.00;;;7.20;;
21438;SDS011;10880;50.302;18.736;2022-11-10T05:33:28;11.50;;;6.70;;
21438;SDS011;10880;50.302;18.736;2022-11-10T05:36:13;15.60;;;8.60;;
21438;SDS011;10880;50.302;18.736;2022-11-10T05:38:58;11.97;;;7.37;;
21438;SDS011;10880;50.302;18.736;2022-11-10T05:41:43;10.87;;;6.60;;
21438;SDS011;10880;50.302;18.736;2022-11-10T05:44:29;15.33;;;8.97;;
21438;SDS011;10880;50.302;18.736;2022-11-10T05:47:14;17.60;;;10.03;;
21438;SDS011;10880;50.302;18.736;2022-11-10T05:49:59;20.57;;;11.70;;
21438;SDS011;10880;50.302;18.736;2022-11-10T05:52:45;24.33;;;13.33;;
21438;SDS011;10880;50.302;18.736;2022-11-10T05:55:34;23.03;;;12.23;;
21438;SDS011;10880;50.302;18.736;2022-11-10T05:58:19;32.13;;;17.23;;
21438;SDS011;10880;50.302;18.736;2022-11-10T06:01:04;22.27;;;12.43;;
21438;SDS011;10880;50.302;18.736;2022-11-10T06:03:49;18.17;;;10.23;;
21438;SDS011;10880;50.302;18.736;2022-11-10T06:06:34;13.23;;;8.10;;
21438;SDS011;10880;50.302;18.736;2022-11-10T06:09:19;12.93;;;8.27;;
21438;SDS011;10880;50.302;18.736;2022-11-10T06:12:04;19.13;;;10.50;;
21438;SDS011;10880;50.302;18.736;2022-11-10T06:14:49;15.57;;;9.03;;
21438;SDS011;10880;50.302;18.736;2022-11-10T06:17:38;18.03;;;10.53;;
21438;SDS011;10880;50.302;18.736;2022-11-10T06:20:23;12.13;;;7.53;;
21438;SDS011;10880;50.302;18.736;2022-11-10T06:23:09;11.90;;;7.23;;
21438;SDS011;10880;50.302;18.736;2022-11-10T06:25:55;11.00;;;7.40;;
21438;SDS011;10880;50.302;18.736;2022-11-10T06:28:40;13.50;;;8.17;;
21438;SDS011;10880;50.302;18.736;2022-11-10T06:31:25;12.23;;;7.40;;
21438;SDS011;10880;50.302;18.736;2022-11-10T06:34:11;15.03;;;8.70;;
21438;SDS011;10880;50.302;18.736;2022-11-10T06:36:56;22.87;;;11.80;;
21438;SDS011;10880;50.302;18.736;2022-11-10T06:39:41;15.27;;;8.73;;
21438;SDS011;10880;50.302;18.736;2022-11-10T06:42:26;14.17;;;8.50;;
21438;SDS011;10880;50.302;18.736;2022-11-10T06:45:11;21.93;;;11.47;;
21438;SDS011;10880;50.302;18.736;2022-11-10T06:48:03;14.77;;;8.60;;
21438;SDS011;10880;50.302;18.736;2022-11-10T06:50:53;13.13;;;7.50;;
21438;SDS011;10880;50.302;18.736;2022-11-10T06:53:39;16.70;;;9.50;;
21438;SDS011;10880;50.302;18.736;2022-11-10T06:56:25;23.27;;;12.17;;
21438;SDS011;10880;50.302;18.736;2022-11-10T06:59:10;27.37;;;14.03;;
21438;SDS011;10880;50.302;18.736;2022-11-10T07:01:55;21.90;;;12.23;;
21438;SDS011;10880;50.302;18.736;2022-11-10T07:04:40;27.67;;;14.13;;
21438;SDS011;10880;50.302;18.736;2022-11-10T07:07:26;15.90;;;9.40;;
21438;SDS011;10880;50.302;18.736;2022-11-10T07:10:11;19.03;;;9.83;;
21438;SDS011;10880;50.302;18.736;2022-11-10T07:12:57;18.70;;;10.57;;
21438;SDS011;10880;50.302;18.736;2022-11-10T07:15:43;34.37;;;16.40;;
21438;SDS011;10880;50.302;18.736;2022-11-10T07:18:28;21.93;;;10.70;;
21438;SDS011;10880;50.302;18.736;2022-11-10T07:21:13;16.40;;;9.03;;
21438;SDS011;10880;50.302;18.736;2022-11-10T07:23:58;11.00;;;6.43;;
21438;SDS011;10880;50.302;18.736;2022-11-10T07:26:42;10.43;;;5.93;;
21438;SDS011;10880;50.302;18.736;2022-11-10T07:29:27;9.43;;;5.87;;
21438;SDS011;10880;50.302;18.736;2022-11-10T07:32:12;9.20;;;5.40;;
21438;SDS011;10880;50.302;18.736;2022-11-10T07:34:58;18.27;;;9.47;;
21438;SDS011;10880;50.302;18.736;2022-11-10T07:37:42;16.80;;;9.80;;
21438;SDS011;10880;50.302;18.736;2022-11-10T07:40:27;12.30;;;7.00;;
21438;SDS011;10880;50.302;18.736;2022-11-10T07:43:12;13.77;;;7.80;;
21438;SDS011;10880;50.302;18.736;2022-11-10T07:45:57;10.30;;;5.50;;
21438;SDS011;10880;50.302;18.736;2022-11-10T07:48:43;15.17;;;9.20;;
21438;SDS011;10880;50.302;18.736;2022-11-10T07:51:28;16.13;;;9.47;;
21438;SDS011;10880;50.302;18.736;2022-11-10T07:54:14;19.53;;;10.83;;
21438;SDS011;10880;50.302;18.736;2022-11-10T07:56:59;20.10;;;11.03;;
21438;SDS011;10880;50.302;18.736;2022-11-10T07:59:44;23.90;;;11.83;;
21438;SDS011;10880;50.302;18.736;2022-11-10T08:02:29;26.30;;;13.97;;
21438;SDS011;10880;50.302;18.736;2022-11-10T08:05:14;17.50;;;9.90;;
21438;SDS011;10880;50.302;18.736;2022-11-10T08:07:59;11.37;;;7.00;;
21438;SDS011;10880;50.302;18.736;2022-11-10T08:10:44;10.10;;;6.10;;
21438;SDS011;10880;50.302;18.736;2022-11-10T08:13:29;7.23;;;5.23;;
21438;SDS011;10880;50.302;18.736;2022-11-10T08:16:13;12.43;;;7.03;;
21438;SDS011;10880;50.302;18.736;2022-11-10T08:18:58;11.03;;;6.10;;
21438;SDS011;10880;50.302;18.736;2022-11-10T08:21:43;20.73;;;11.20;;
21438;SDS011;10880;50.302;18.736;2022-11-10T08:24:28;22.43;;;11.33;;
21438;SDS011;10880;50.302;18.736;2022-11-10T08:27:13;15.87;;;8.47;;
21438;SDS011;10880;50.302;18.736;2022-11-10T08:29:58;12.10;;;6.70;;
21438;SDS011;10880;50.302;18.736;2022-11-10T08:32:43;9.90;;;6.17;;
21438;SDS011;10880;50.302;18.736;2022-11-10T08:35:29;9.70;;;5.47;;
21438;SDS011;10880;50.302;18.736;2022-11-10T08:38:15;14.13;;;7.70;;
21438;SDS011;10880;50.302;18.736;2022-11-10T08:41:02;10.13;;;6.17;;
21438;SDS011;10880;50.302;18.736;2022-11-10T08:43:47;11.87;;;6.87;;
21438;SDS011;10880;50.302;18.736;2022-11-10T08:46:32;16.80;;;9.13;;
21438;SDS011;10880;50.302;18.736;2022-11-10T08:49:18;14.40;;;8.73;;
21438;SDS011;10880;50.302;18.736;2022-11-10T08:52:03;17.50;;;9.30;;
21438;SDS011;10880;50.302;18.736;2022-11-10T08:54:49;14.03;;;8.07;;
21438;SDS011;10880;50.302;18.736;2022-11-10T08:57:34;15.00;;;8.23;;
21438;SDS011;10880;50.302;18.736;2022-11-10T09:00:19;11.87;;;7.40;;
21438;SDS011;10880;50.302;18.736;2022-11-10T09:03:05;12.63;;;7.20;;
21438;SDS011;10880;50.302;18.736;2022-11-10T09:05:58;9.20;;;5.87;;
21438;SDS011;10880;50.302;18.736;2022-11-10T09:08:43;14.40;;;8.67;;
21438;SDS011;10880;50.302;18.736;2022-11-10T09:11:28;21.20;;;11.57;;
21438;SDS011;10880;50.302;18.736;2022-11-10T09:14:21;12.60;;;7.60;;
21438;SDS011;10880;50.302;18.736;2022-11-10T09:17:11;10.57;;;6.77;;
21438;SDS011;10880;50.302;18.736;2022-11-10T09:19:58;13.83;;;8.20;;
21438;SDS011;10880;50.302;18.736;2022-11-10T09:22:43;14.47;;;7.97;;
21438;SDS011;10880;50.302;18.736;2022-11-10T09:25:29;25.13;;;13.23;;
21438;SDS011;10880;50.302;18.736;2022-11-10T09:28:14;19.57;;;9.77;;
21438;SDS011;10880;50.302;18.736;2022-11-10T09:31:01;11.23;;;7.07;;
21438;SDS011;10880;50.302;18.736;2022-11-10T09:33:48;9.83;;;5.93;;
21438;SDS011;10880;50.302;18.736;2022-11-10T09:36:33;9.03;;;5.33;;
21438;SDS011;10880;50.302;18.736;2022-11-10T09:39:18;9.80;;;5.43;;
21438;SDS011;10880;50.302;18.736;2022-11-10T09:42:03;12.90;;;6.40;;
21438;SDS011;10880;50.302;18.736;2022-11-10T09:44:50;12.00;;;7.07;;
21438;SDS011;10880;50.302;18.736;2022-11-10T09:47:55;14.60;;;8.27;;
21438;SDS011;10880;50.302;18.736;2022-11-10T09:53:40;9.33;;;5.57;;
21438;SDS011;10880;50.302;18.736;2022-11-10T09:56:41;7.90;;;5.30;;
21438;SDS011;10880;50.302;18.736;2022-11-10T09:59:28;6.80;;;4.80;;
21438;SDS011;10880;50.302;18.736;2022-11-10T10:02:20;6.63;;;4.70;;
21438;SDS011;10880;50.302;18.736;2022-11-10T10:05:44;6.60;;;4.50;;
21438;SDS011;10880;50.302;18.736;2022-11-10T10:12:23;6.43;;;4.17;;
21438;SDS011;10880;50.302;18.736;2022-11-10T10:15:22;7.77;;;5.00;;
21438;SDS011;10880;50.302;18.736;2022-11-10T10:18:28;7.07;;;5.27;;
21438;SDS011;10880;50.302;18.736;2022-11-10T10:24:31;5.73;;;4.53;;
21438;SDS011;10880;50.302;18.736;2022-11-10T10:27:22;6.53;;;4.63;;
21438;SDS011;10880;50.302;18.736;2022-11-10T10:30:19;5.83;;;3.97;;
21438;SDS011;10880;50.302;18.736;2022-11-10T10:33:12;5.70;;;4.13;;
21438;SDS011;10880;50.302;18.736;2022-11-10T10:35:58;6.30;;;4.17;;
21438;SDS011;10880;50.302;18.736;2022-11-10T10:39:00;5.97;;;4.23;;
21438;SDS011;10880;50.302;18.736;2022-11-10T10:41:49;5.87;;;4.20;;
21438;SDS011;10880;50.302;18.736;2022-11-10T10:44:34;7.27;;;4.30;;
21438;SDS011;10880;50.302;18.736;2022-11-10T10:47:19;8.53;;;4.20;;
21438;SDS011;10880;50.302;18.736;2022-11-10T10:53:16;7.73;;;4.70;;
21438;SDS011;10880;50.302;18.736;2022-11-10T10:56:11;4.97;;;3.73;;
21438;SDS011;10880;50.302;18.736;2022-11-10T10:59:02;4.50;;;3.20;;
21438;SDS011;10880;50.302;18.736;2022-11-10T11:01:51;15.80;;;9.67;;
21438;SDS011;10880;50.302;18.736;2022-11-10T11:04:37;11.20;;;6.90;;
21438;SDS011;10880;50.302;18.736;2022-11-10T11:07:23;7.83;;;4.83;;
21438;SDS011;10880;50.302;18.736;2022-11-10T11:13:12;6.37;;;4.60;;
21438;SDS011;10880;50.302;18.736;2022-11-10T11:16:04;9.87;;;6.40;;
21438;SDS011;10880;50.302;18.736;2022-11-10T11:18:51;6.73;;;4.77;;
21438;SDS011;10880;50.302;18.736;2022-11-10T11:21:36;6.70;;;4.80;;
21438;SDS011;10880;50.302;18.736;2022-11-10T11:28:12;4.47;;;3.23;;
21438;SDS011;10880;50.302;18.736;2022-11-10T11:34:55;5.77;;;3.43;;
21438;SDS011;10880;50.302;18.736;2022-11-10T11:50:26;7.80;;;4.47;;
21438;SDS011;10880;50.302;18.736;2022-11-10T11:53:38;6.63;;;4.60;;
21438;SDS011;10880;50.302;18.736;2022-11-10T11:56:49;4.90;;;4.00;;
21438;SDS011;10880;50.302;18.736;2022-11-10T11:59:44;6.63;;;4.10;;
21438;SDS011;10880;50.302;18.736;2022-11-10T12:02:37;7.17;;;4.57;;
21438;SDS011;10880;50.302;18.736;2022-11-10T12:14:36;3.40;;;3.00;;
21438;SDS011;10880;50.302;18.736;2022-11-10T12:27:02;2.63;;;2.30;;
21438;SDS011;10880;50.302;18.736;2022-11-10T12:30:07;3.07;;;2.47;;
21438;SDS011;10880;50.302;18.736;2022-11-10T12:33:03;4.97;;;3.40;;
21438;SDS011;10880;50.302;18.736;2022-11-10T12:35:58;4.60;;;3.10;;
21438;SDS011;10880;50.302;18.736;2022-11-10T12:38:50;4.33;;;3.23;;
21438;SDS011;10880;50.302;18.736;2022-11-10T12:41:43;4.13;;;3.13;;
21438;SDS011;10880;50.302;18.736;2022-11-10T12:44:36;5.03;;;3.40;;
21438;SDS011;10880;50.302;18.736;2022-11-10T12:47:38;3.60;;;2.83;;
21438;SDS011;10880;50.302;18.736;2022-11-10T12:53:26;4.37;;;3.60;;
21438;SDS011;10880;50.302;18.736;2022-11-10T12:56:19;3.47;;;3.17;;
21438;SDS011;10880;50.302;18.736;2022-11-10T13:02:14;4.93;;;4.03;;
21438;SDS011;10880;50.302;18.736;2022-11-10T13:08:05;3.97;;;2.93;;
21438;SDS011;10880;50.302;18.736;2022-11-10T13:10:59;2.90;;;2.70;;
21438;SDS011;10880;50.302;18.736;2022-11-10T13:14:30;3.10;;;2.60;;
21438;SDS011;10880;50.302;18.736;2022-11-10T13:17:10;2.93;;;2.40;;
21438;SDS011;10880;50.302;18.736;2022-11-10T13:32:30;1.90;;;1.80;;
21438;SDS011;10880;50.302;18.736;2022-11-10T13:38:45;3.40;;;2.20;;
21438;SDS011;10880;50.302;18.736;2022-11-10T13:45:35;2.50;;;2.10;;
21438;SDS011;10880;50.302;18.736;2022-11-10T13:48:36;2.63;;;2.13;;
21438;SDS011;10880;50.302;18.736;2022-11-10T13:51:38;1.70;;;1.60;;
21438;SDS011;10880;50.302;18.736;2022-11-10T13:54:40;2.17;;;1.80;;
21438;SDS011;10880;50.302;18.736;2022-11-10T13:57:39;2.07;;;1.90;;
21438;SDS011;10880;50.302;18.736;2022-11-10T14:00:37;2.37;;;2.07;;
21438;SDS011;10880;50.302;18.736;2022-11-10T14:06:43;1.97;;;1.80;;
21438;SDS011;10880;50.302;18.736;2022-11-10T14:09:34;1.90;;;1.80;;
21438;SDS011;10880;50.302;18.736;2022-11-10T14:12:29;1.90;;;1.80;;
21438;SDS011;10880;50.302;18.736;2022-11-10T14:15:18;2.10;;;1.90;;
21438;SDS011;10880;50.302;18.736;2022-11-10T14:18:13;2.37;;;2.00;;
21438;SDS011;10880;50.302;18.736;2022-11-10T14:21:11;2.00;;;1.90;;
21438;SDS011;10880;50.302;18.736;2022-11-10T14:27:06;2.47;;;2.27;;
21438;SDS011;10880;50.302;18.736;2022-11-10T14:30:06;2.40;;;2.20;;
21438;SDS011;10880;50.302;18.736;2022-11-10T14:33:02;2.00;;;1.90;;
21438;SDS011;10880;50.302;18.736;2022-11-10T14:35:54;1.87;;;1.77;;
21438;SDS011;10880;50.302;18.736;2022-11-10T14:38:42;4.13;;;2.30;;
21438;SDS011;10880;50.302;18.736;2022-11-10T14:41:27;2.70;;;2.03;;
21438;SDS011;10880;50.302;18.736;2022-11-10T14:44:12;2.20;;;2.00;;
21438;SDS011;10880;50.302;18.736;2022-11-10T14:50:24;2.70;;;2.40;;
21438;SDS011;10880;50.302;18.736;2022-11-10T14:59:10;3.30;;;2.57;;
21438;SDS011;10880;50.302;18.736;2022-11-10T15:01:57;2.50;;;2.30;;
21438;SDS011;10880;50.302;18.736;2022-11-10T15:04:44;3.20;;;2.90;;
21438;SDS011;10880;50.302;18.736;2022-11-10T15:07:31;3.87;;;2.50;;
21438;SDS011;10880;50.302;18.736;2022-11-10T15:22:29;2.20;;;2.00;;
21438;SDS011;10880;50.302;18.736;2022-11-10T15:25:18;2.30;;;2.10;;
21438;SDS011;10880;50.302;18.736;2022-11-10T15:30:58;2.37;;;2.17;;
21438;SDS011;10880;50.302;18.736;2022-11-10T15:33:46;2.60;;;2.40;;
21438;SDS011;10880;50.302;18.736;2022-11-10T15:36:34;2.47;;;2.27;;
21438;SDS011;10880;50.302;18.736;2022-11-10T15:39:22;3.03;;;2.50;;
21438;SDS011;10880;50.302;18.736;2022-11-10T15:42:12;2.50;;;2.30;;
21438;SDS011;10880;50.302;18.736;2022-11-10T15:45:07;3.33;;;2.40;;
21438;SDS011;10880;50.302;18.736;2022-11-10T15:47:52;2.60;;;2.40;;
21438;SDS011;10880;50.302;18.736;2022-11-10T15:50:37;2.33;;;2.13;;
21438;SDS011;10880;50.302;18.736;2022-11-10T15:53:24;2.40;;;2.20;;
21438;SDS011;10880;50.302;18.736;2022-11-10T15:56:17;2.70;;;2.50;;
21438;SDS011;10880;50.302;18.736;2022-11-10T15:59:04;2.47;;;2.27;;
21438;SDS011;10880;50.302;18.736;2022-11-10T16:01:49;2.77;;;2.50;;
21438;SDS011;10880;50.302;18.736;2022-11-10T16:04:34;3.30;;;2.73;;
21438;SDS011;10880;50.302;18.736;2022-11-10T16:07:19;3.47;;;2.50;;
21438;SDS011;10880;50.302;18.736;2022-11-10T16:10:04;3.10;;;2.70;;
21438;SDS011;10880;50.302;18.736;2022-11-10T16:12:49;4.63;;;2.97;;
21438;SDS011;10880;50.302;18.736;2022-11-10T16:15:34;3.93;;;3.00;;
21438;SDS011;10880;50.302;18.736;2022-11-10T16:18:21;3.30;;;3.00;;
21438;SDS011;10880;50.302;18.736;2022-11-10T16:21:11;4.37;;;3.17;;
21438;SDS011;10880;50.302;18.736;2022-11-10T16:23:57;3.47;;;2.80;;
21438;SDS011;10880;50.302;18.736;2022-11-10T16:26:42;4.97;;;3.77;;
21438;SDS011;10880;50.302;18.736;2022-11-10T16:29:28;5.47;;;4.00;;
21438;SDS011;10880;50.302;18.736;2022-11-10T16:32:14;5.23;;;3.83;;
21438;SDS011;10880;50.302;18.736;2022-11-10T16:34:59;7.43;;;4.03;;
21438;SDS011;10880;50.302;18.736;2022-11-10T16:37:44;6.10;;;4.23;;
21438;SDS011;10880;50.302;18.736;2022-11-10T16:40:29;5.83;;;4.23;;
21438;SDS011;10880;50.302;18.736;2022-11-10T16:43:14;7.57;;;5.10;;
21438;SDS011;10880;50.302;18.736;2022-11-10T16:46:01;6.67;;;4.60;;
21438;SDS011;10880;50.302;18.736;2022-11-10T16:48:49;8.10;;;5.10;;
21438;SDS011;10880;50.302;18.736;2022-11-10T16:51:38;10.27;;;5.77;;
21438;SDS011;10880;50.302;18.736;2022-11-10T16:54:24;9.07;;;5.87;;
21438;SDS011;10880;50.302;18.736;2022-11-10T16:57:12;10.50;;;6.40;;
21438;SDS011;10880;50.302;18.736;2022-11-10T16:59:58;12.70;;;7.87;;
21438;SDS011;10880;50.302;18.736;2022-11-10T17:02:43;13.13;;;7.03;;
21438;SDS011;10880;50.302;18.736;2022-11-10T17:05:35;10.37;;;6.53;;
21438;SDS011;10880;50.302;18.736;2022-11-10T17:08:23;12.10;;;7.33;;
21438;SDS011;10880;50.302;18.736;2022-11-10T17:11:11;15.17;;;8.50;;
21438;SDS011;10880;50.302;18.736;2022-11-10T17:13:55;18.67;;;10.43;;
21438;SDS011;10880;50.302;18.736;2022-11-10T17:16:44;20.20;;;10.07;;
21438;SDS011;10880;50.302;18.736;2022-11-10T17:19:30;16.73;;;9.30;;
21438;SDS011;10880;50.302;18.736;2022-11-10T17:22:16;15.70;;;8.40;;
21438;SDS011;10880;50.302;18.736;2022-11-10T17:25:04;12.70;;;7.13;;
21438;SDS011;10880;50.302;18.736;2022-11-10T17:27:50;15.57;;;7.83;;
21438;SDS011;10880;50.302;18.736;2022-11-10T17:30:35;14.13;;;7.53;;
21438;SDS011;10880;50.302;18.736;2022-11-10T17:33:19;17.07;;;9.90;;
21438;SDS011;10880;50.302;18.736;2022-11-10T17:36:05;19.73;;;10.57;;
21438;SDS011;10880;50.302;18.736;2022-11-10T17:38:57;15.37;;;9.00;;
21438;SDS011;10880;50.302;18.736;2022-11-10T17:41:42;11.37;;;7.23;;
21438;SDS011;10880;50.302;18.736;2022-11-10T17:44:27;15.13;;;8.07;;
21438;SDS011;10880;50.302;18.736;2022-11-10T17:47:12;12.67;;;7.63;;
21438;SDS011;10880;50.302;18.736;2022-11-10T17:49:56;12.23;;;7.27;;
21438;SDS011;10880;50.302;18.736;2022-11-10T17:52:44;14.77;;;7.77;;
21438;SDS011;10880;50.302;18.736;2022-11-10T17:55:30;11.60;;;7.00;;
21438;SDS011;10880;50.302;18.736;2022-11-10T17:58:15;17.27;;;9.10;;
21438;SDS011;10880;50.302;18.736;2022-11-10T18:01:01;20.77;;;9.97;;
21438;SDS011;10880;50.302;18.736;2022-11-10T18:03:46;16.53;;;8.83;;
21438;SDS011;10880;50.302;18.736;2022-11-10T18:06:31;17.63;;;9.90;;
21438;SDS011;10880;50.302;18.736;2022-11-10T18:09:16;18.87;;;9.57;;
21438;SDS011;10880;50.302;18.736;2022-11-10T18:12:01;18.03;;;9.30;;
21438;SDS011;10880;50.302;18.736;2022-11-10T18:14:45;20.83;;;10.83;;
21438;SDS011;10880;50.302;18.736;2022-11-10T18:17:31;16.20;;;8.63;;
21438;SDS011;10880;50.302;18.736;2022-11-10T18:20:16;25.37;;;12.27;;
21438;SDS011;10880;50.302;18.736;2022-11-10T18:23:01;18.77;;;10.47;;
21438;SDS011;10880;50.302;18.736;2022-11-10T18:25:47;20.73;;;10.50;;